Leckie, West Virginia
Current Conditions -  °F | °C
As of 6:52 PM on Sunday 25 Jan 2015 (Local Time) from KBLF Reporting Station
Overcast Overcast  
Wind Chill: 43°   Ceiling: 10000
Heat Index: 43°   Visibility: 10mi
Dew Point: 31°   Wind: 3mph
Humidity: 62%   Direction: NA
Pressure: 29.72"   Gusts: NA
Location:  37.34°N, 81.42°W
Report Text: KBLF 252352Z AUTO VRB03KT 10SM SCT080 OVC100 06/M01 A2972 RMK AO2 SLP070 T00611006 10089 20044 55000
Loading
Personal Weather Stations






























Interactive Weather Map New forecast layout! Learn more

10-Day Weather Forecast

Advertisements
Track Severe Weather on mobile